Time;durP1;ratioP1;P1;durP2;ratioP2;P2;SDS_P1;SDS_P2;PMS_P1;PMS_P2;Temp;Humidity;BMP_temperature;BMP_pressure;BME280_temperature;BME280_humidity;BME280_pressure;Samples;Min_cycle;Max_cycle;Signal;HPM_P1;HPM_P2
2021/10/13 05:00:21;;;;;;;41.67;33.88;;;;;;;5.66;100.00;94602.88;5973122;23;20030;-80
2021/10/13 05:02:47;;;;;;;41.88;33.95;;;;;;;6.04;100.00;94645.41;4961456;23;20070;-79
2021/10/13 05:05:13;;;;;;;43.42;34.85;;;;;;;5.79;100.00;94570.72;4945371;29;20091;-79
2021/10/13 05:07:38;;;;;;;38.83;31.92;;;;;;;5.84;100.00;94576.19;4931742;29;20052;-80
2021/10/13 05:10:04;;;;;;;41.42;34.03;;;;;;;5.87;100.00;94571.75;5072822;23;20059;-80
2021/10/13 05:12:30;;;;;;;42.53;34.10;;;;;;;6.36;100.00;94643.03;4948132;28;20028;-80
2021/10/13 05:14:56;;;;;;;40.45;33.72;;;;;;;6.09;100.00;94587.47;5056402;23;20047;-80
2021/10/13 05:17:21;;;;;;;40.20;32.00;;;;;;;6.57;100.00;94635.75;4956481;29;20043;-80
2021/10/13 05:19:47;;;;;;;40.25;34.22;;;;;;;6.30;100.00;94575.03;4973339;28;20023;-80
2021/10/13 05:22:12;;;;;;;38.20;32.50;;;;;;;6.37;100.00;94557.22;5381728;23;20025;-79
2021/10/13 05:24:38;;;;;;;39.03;33.05;;;;;;;6.40;100.00;94538.91;5012071;23;20047;-80
2021/10/13 05:29:34;;;;;;;34.97;30.50;;;;;;;9.14;98.23;94498.91;5594607;23;20055;-85
2021/10/13 05:31:59;;;;;;;33.88;30.23;;;;;;;9.98;93.31;94514.16;4955133;29;20046;-86
2021/10/13 05:34:25;;;;;;;30.02;26.92;;;;;;;9.89;91.12;94520.34;4949332;29;20035;-86
2021/10/13 05:36:50;;;;;;;30.02;27.00;;;;;;;10.53;89.54;94515.47;4949282;29;20039;-86
2021/10/13 05:39:16;;;;;;;29.27;26.20;;;;;;;10.69;88.70;94514.47;4965697;28;20072;-87
2021/10/13 05:41:41;;;;;;;27.23;24.38;;;;;;;11.98;81.41;94495.09;4948067;29;20027;-86
2021/10/13 05:44:07;;;;;;;30.65;27.50;;;;;;;12.13;80.15;94495.00;4933939;29;20034;-89
2021/10/13 05:46:32;;;;;;;25.90;23.40;;;;;;;13.21;75.14;94495.00;4944550;29;20075;-90
2021/10/13 05:48:58;;;;;;;26.88;24.02;;;;;;;13.37;72.71;94504.22;4901943;29;20031;-93
2021/10/13 05:51:23;;;;;;;26.10;21.52;;;;;;;14.04;81.07;94486.56;4933795;29;20412;-86
2021/10/13 05:53:49;;;;;;;23.58;21.35;;;;;;;15.38;70.08;94504.91;4918166;29;20032;-87
2021/10/13 05:56:14;;;;;;;22.23;20.13;;;;;;;15.16;66.59;94505.22;4933834;29;20108;-82
2021/10/13 05:58:40;;;;;;;23.27;21.05;;;;;;;15.55;63.99;94504.19;4931843;29;20047;-87
2021/10/13 06:01:06;;;;;;;22.27;20.27;;;;;;;15.16;63.92;94513.03;4913058;29;20034;-91
2021/10/13 06:03:31;;;;;;;21.20;19.27;;;;;;;14.77;74.31;94510.63;4943974;29;20028;-84
2021/10/13 06:05:57;;;;;;;21.60;19.40;;;;;;;14.85;66.05;94514.81;4941548;29;20046;-90
2021/10/13 06:08:22;;;;;;;23.23;20.88;;;;;;;16.01;61.86;94518.69;4941099;28;20023;-84
2021/10/13 06:10:48;;;;;;;21.42;19.48;;;;;;;16.33;59.39;94510.53;4899501;29;20035;-88
2021/10/13 06:13:13;;;;;;;21.88;19.88;;;;;;;15.73;59.68;94506.06;4916312;29;20576;-82
2021/10/13 06:15:39;;;;;;;21.42;19.63;;;;;;;16.26;58.78;94530.72;4930008;29;20070;-78
2021/10/13 06:18:07;;;;;;;20.40;18.67;;;;;;;16.97;57.27;94529.38;4938792;29;20028;-81
2021/10/13 06:20:33;;;;;;;20.65;18.85;;;;;;;16.93;56.11;94520.34;4915842;29;20035;-81
2021/10/13 06:22:59;;;;;;;20.60;18.60;;;;;;;11.72;73.88;94528.63;4916402;29;20086;-87
2021/10/13 06:25:27;;;;;;;23.02;21.02;;;;;;;11.41;80.21;94512.59;4932354;29;20382;-90
2021/10/13 06:27:53;;;;;;;21.95;19.98;;;;;;;10.68;80.47;94525.81;4914827;29;20106;-82
2021/10/13 06:30:18;;;;;;;22.55;20.45;;;;;;;9.71;87.90;94519.09;4927336;29;20095;-83
2021/10/13 06:32:44;;;;;;;22.30;20.13;;;;;;;9.83;88.75;94549.50;4938063;28;20022;-83
2021/10/13 06:35:09;;;;;;;24.38;21.83;;;;;;;9.63;90.90;94543.25;4944005;28;20044;-79
2021/10/13 06:37:35;;;;;;;23.95;21.55;;;;;;;9.53;91.40;94553.81;4961075;28;20050;-81
2021/10/13 06:40:01;;;;;;;24.27;21.70;;;;;;;10.23;87.97;94478.47;5087255;23;20058;-80
2021/10/13 06:47:31;;;;;;;24.27;21.27;;;;;;;9.90;85.30;94452.13;5523753;23;20305;-80
2021/10/13 06:49:56;;;;;;;22.58;20.48;;;;;;;8.83;89.36;94467.97;5118302;23;20071;-83
2021/10/13 06:52:22;;;;;;;25.00;22.55;;;;;;;8.81;90.82;94498.31;5591610;23;20003;-81
2021/10/13 06:54:47;;;;;;;24.02;21.55;;;;;;;8.67;90.51;94462.13;4972437;28;20015;-79
2021/10/13 06:59:48;;;;;;;22.75;20.63;;;;;;;11.06;83.00;94496.94;5021282;23;20080;-80
2021/10/13 07:02:14;;;;;;;21.67;19.58;;;;;;;9.08;86.77;94447.13;5088499;23;20065;-79
2021/10/13 07:04:39;;;;;;;20.08;18.23;;;;;;;13.70;68.28;94549.28;5081484;23;20409;-88
2021/10/13 07:07:05;;;;;;;21.48;19.35;;;;;;;14.04;71.59;94527.44;4964269;28;20055;-83
2021/10/13 07:09:30;;;;;;;20.08;18.13;;;;;;;11.46;73.97;94523.22;4952428;29;20106;-86
2021/10/13 07:11:56;;;;;;;20.05;18.15;;;;;;;10.91;79.89;94549.78;4971823;28;20019;-84
2021/10/13 07:14:21;;;;;;;19.50;17.17;;;;;;;18.88;53.04;94546.31;5175396;23;20055;-90
2021/10/13 07:16:47;;;;;;;20.02;16.67;;;;;;;14.89;66.07;94555.91;4965345;28;20065;-87
2021/10/13 07:19:12;;;;;;;17.67;16.17;;;;;;;15.45;60.02;94552.59;4951353;28;20058;-89
2021/10/13 07:21:38;;;;;;;18.48;16.63;;;;;;;11.63;74.54;94529.72;4950077;29;20046;-89
2021/10/13 07:24:03;;;;;;;19.73;17.83;;;;;;;10.78;80.71;94545.25;4939193;29;20031;-86
2021/10/13 07:26:30;;;;;;;19.35;17.75;;;;;;;11.20;80.54;94572.22;5565449;23;20683;-80
2021/10/13 07:29:10;;;;;;;19.67;17.33;;;;;;;11.21;80.26;94556.47;4948602;29;20051;-87
2021/10/13 07:31:36;;;;;;;18.58;16.75;;;;;;;11.56;74.33;94498.53;4941918;28;20031;-87
2021/10/13 07:34:02;;;;;;;18.08;16.58;;;;;;;12.50;73.61;94491.97;4907660;29;20028;-88
2021/10/13 07:36:27;;;;;;;17.83;16.23;;;;;;;11.25;75.34;94479.16;4931856;29;20035;-89
2021/10/13 07:38:54;;;;;;;21.08;19.05;;;;;;;11.62;78.35;94574.84;4935774;29;20047;-85
2021/10/13 07:41:19;;;;;;;19.17;17.38;;;;;;;12.24;77.05;94532.56;4947514;29;20052;-87
2021/10/13 07:43:46;;;;;;;18.90;17.02;;;;;;;12.36;74.21;94499.91;4917321;29;20079;-87
2021/10/13 07:46:12;;;;;;;17.67;15.93;;;;;;;11.43;77.73;94562.50;4930210;29;20027;-80
2021/10/13 07:48:38;;;;;;;18.05;16.45;;;;;;;11.87;78.13;94541.53;5090808;23;20046;-86
2021/10/13 07:51:03;;;;;;;18.60;16.63;;;;;;;12.39;76.30;94547.06;4941763;29;20473;-89
2021/10/13 07:53:29;;;;;;;18.20;16.48;;;;;;;11.01;77.79;94457.78;4937213;28;20557;-86
2021/10/13 07:55:54;;;;;;;17.95;16.27;;;;;;;11.20;77.79;94500.44;4942514;29;20101;-88
2021/10/13 07:58:20;;;;;;;18.85;17.02;;;;;;;11.92;78.31;94542.56;4937037;28;20109;-86
2021/10/13 08:00:45;;;;;;;18.48;16.63;;;;;;;11.67;76.92;94510.22;4914714;29;20036;-91
2021/10/13 08:03:11;;;;;;;18.05;16.33;;;;;;;11.64;78.23;94585.81;4934389;29;20035;-86
2021/10/13 08:05:38;;;;;;;15.55;14.25;;;;;;;11.76;75.08;94535.06;4993280;23;20055;-83
2021/10/13 08:08:04;;;;;;;15.95;14.55;;;;;;;13.60;71.01;94572.28;4947102;29;20153;-85
2021/10/13 08:10:29;;;;;;;16.73;15.18;;;;;;;12.46;71.85;94524.50;4949414;29;20480;-90
2021/10/13 08:12:55;;;;;;;16.55;14.80;;;;;;;12.61;70.52;94516.59;4948644;28;20022;-91
2021/10/13 08:15:20;;;;;;;16.75;15.05;;;;;;;12.81;72.81;94571.25;4951289;29;20035;-90
2021/10/13 08:17:45;;;;;;;16.02;14.48;;;;;;;13.88;69.85;94572.09;4947827;28;20066;-87
2021/10/13 08:20:11;;;;;;;15.00;13.80;;;;;;;13.88;66.81;94559.88;4952413;28;20038;-80
2021/10/13 08:22:38;;;;;;;16.15;14.55;;;;;;;13.73;68.93;94572.31;4930074;29;20082;-87
2021/10/13 08:25:05;;;;;;;16.08;14.55;;;;;;;12.90;69.88;94568.28;4925508;29;20878;-85
2021/10/13 08:27:30;;;;;;;16.60;15.23;;;;;;;12.37;71.07;94563.81;4950184;28;20042;-87
2021/10/13 08:29:55;;;;;;;17.83;16.05;;;;;;;12.34;71.81;94546.00;4933202;29;20020;-87
2021/10/13 08:32:21;;;;;;;20.23;16.10;;;;;;;11.61;73.80;94550.69;4914248;29;20046;-79
2021/10/13 08:34:46;;;;;;;18.00;16.30;;;;;;;11.60;75.81;94556.84;4937122;29;20035;-82
2021/10/13 08:37:12;;;;;;;18.88;17.25;;;;;;;11.18;77.03;94569.00;4919013;29;20118;-80
2021/10/13 08:39:37;;;;;;;18.50;16.63;;;;;;;12.68;72.74;94520.81;5077842;23;20453;-86
2021/10/13 08:42:03;;;;;;;17.13;15.52;;;;;;;13.68;68.75;94557.28;4953917;28;20038;-87
2021/10/13 08:44:29;;;;;;;17.50;15.73;;;;;;;12.93;70.93;94546.28;4959497;28;20018;-86
2021/10/13 08:46:54;;;;;;;17.15;15.50;;;;;;;12.39;74.98;94554.06;4944532;28;20039;-84
2021/10/13 08:49:19;;;;;;;16.10;14.70;;;;;;;12.21;74.59;94574.50;4939713;29;20019;-91
2021/10/13 08:51:45;;;;;;;15.68;14.38;;;;;;;12.11;72.67;94567.03;4940348;29;20370;-86
2021/10/13 08:54:13;;;;;;;15.25;14.05;;;;;;;12.35;72.63;94543.25;5069127;23;20021;-82
2021/10/13 08:56:40;;;;;;;13.15;11.95;;;;;;;14.89;63.64;94568.16;4949305;28;20134;-86
2021/10/13 08:59:06;;;;;;;18.05;13.90;;;;;;;15.89;60.57;94544.72;4951128;28;20034;-85
2021/10/13 09:01:31;;;;;;;14.13;12.88;;;;;;;13.66;68.03;94576.69;4921291;29;20036;-87
2021/10/13 09:04:00;;;;;;;14.77;13.50;;;;;;;12.96;68.26;94580.50;4937599;28;20036;-89
2021/10/13 09:06:27;;;;;;;15.52;14.13;;;;;;;12.77;69.71;94586.41;4911806;29;20024;-81
2021/10/13 09:09:02;;;;;;;15.15;13.70;;;;;;;13.95;64.67;94584.13;4912667;29;20119;-89
2021/10/13 09:11:45;;;;;;;14.07;12.77;;;;;;;12.85;67.59;94581.03;4911651;29;20032;-86
2021/10/13 09:17:09;;;;;;;13.30;12.10;;;;;;;13.96;62.43;94583.13;5005257;23;20071;-87
2021/10/13 09:19:39;;;;;;;12.65;11.48;;;;;;;14.80;59.05;94583.25;4929930;29;20712;-86
2021/10/13 09:22:12;;;;;;;12.80;11.68;;;;;;;15.52;59.06;94580.31;4928114;29;20040;-89
2021/10/13 09:24:46;;;;;;;13.93;12.82;;;;;;;15.26;59.46;94590.84;4930277;29;20036;-86
2021/10/13 09:27:20;;;;;;;13.90;12.55;;;;;;;14.11;60.90;94591.53;4929811;29;20028;-88
2021/10/13 09:29:46;;;;;;;12.50;11.27;;;;;;;13.16;62.34;94588.41;4930386;29;20035;-92
2021/10/13 09:32:11;;;;;;;12.70;11.60;;;;;;;13.53;63.73;94585.28;4930316;29;20068;-90
2021/10/13 09:34:47;;;;;;;12.80;11.63;;;;;;;15.02;57.07;94578.53;4930073;29;20421;-89
2021/10/13 09:37:12;;;;;;;12.27;11.27;;;;;;;15.37;56.18;94574.56;4914425;29;20070;-88
2021/10/13 09:39:38;;;;;;;12.02;11.00;;;;;;;14.87;59.26;94570.16;4928585;29;20094;-87
2021/10/13 09:42:10;;;;;;;13.40;12.30;;;;;;;14.53;59.36;94577.28;4913528;29;20036;-91
2021/10/13 09:44:41;;;;;;;11.57;10.52;;;;;;;16.47;53.94;94578.38;4929803;29;20028;-88
2021/10/13 09:47:11;;;;;;;12.88;11.63;;;;;;;16.74;54.59;94569.25;4911072;29;20028;-86
2021/10/13 09:49:38;;;;;;;12.75;11.48;;;;;;;14.90;59.13;94580.97;4925340;29;20118;-93
2021/10/13 09:52:09;;;;;;;13.50;12.10;;;;;;;14.40;60.29;94587.72;4929446;29;20470;-89
2021/10/13 09:54:35;;;;;;;13.27;12.07;;;;;;;14.95;60.33;94586.38;4914589;29;20035;-89
2021/10/13 09:57:23;;;;;;;13.98;12.57;;;;;;;14.44;59.97;94564.69;4929769;29;20082;-89
2021/10/13 10:00:08;;;;;;;13.20;11.93;;;;;;;15.39;57.92;94584.78;4930692;29;20501;-87
2021/10/13 10:02:49;;;;;;;10.23;9.32;;;;;;;13.94;58.09;94590.31;4929506;29;20032;-85
2021/10/13 10:05:26;;;;;;;9.13;8.43;;;;;;;13.82;57.21;94591.94;4929790;29;20039;-91
2021/10/13 10:08:01;;;;;;;11.48;10.48;;;;;;;15.13;56.50;94599.53;4931611;29;20457;-88
2021/10/13 10:10:26;;;;;;;10.95;10.00;;;;;;;15.24;55.77;94598.91;4926902;29;20066;-84
2021/10/13 10:13:09;;;;;;;12.55;10.68;;;;;;;15.55;55.04;94594.75;4930416;29;20027;-91
2021/10/13 10:15:38;;;;;;;12.05;11.05;;;;;;;13.96;57.00;94583.13;4928254;29;20060;-87
2021/10/13 10:18:26;;;;;;;10.48;9.48;;;;;;;14.91;56.72;94585.19;4929910;29;20087;-84
2021/10/13 10:20:52;;;;;;;11.35;10.27;;;;;;;15.10;56.26;94581.69;4928904;29;20122;-85
2021/10/13 10:23:45;;;;;;;11.50;10.25;;;;;;;13.94;59.20;94579.91;4923872;29;20055;-88
2021/10/13 10:26:26;;;;;;;10.30;9.35;;;;;;;13.24;59.39;94587.41;4925418;29;20490;-83
2021/10/13 10:28:55;;;;;;;11.73;10.52;;;;;;;13.09;61.88;94579.78;4926028;29;20111;-84
2021/10/13 10:31:27;;;;;;;13.30;10.90;;;;;;;13.11;62.36;94586.38;4928613;29;20123;-92
2021/10/13 10:34:06;;;;;;;11.27;10.20;;;;;;;14.17;59.49;94580.31;4928337;29;20098;-84
2021/10/13 10:36:35;;;;;;;;;;;;;;;14.10;59.44;94578.69;4925532;29;20047;-87
2021/10/13 10:39:04;;;;;;;9.73;8.82;;;;;;;14.10;58.27;94583.91;4922771;29;19918;-91
2021/10/13 10:41:39;;;;;;;9.85;8.93;;;;;;;14.19;57.93;94587.94;4931561;29;20110;-89
2021/10/13 10:44:33;;;;;;;11.25;10.25;;;;;;;14.14;59.06;94585.91;4933063;29;20044;-83
2021/10/13 10:47:14;;;;;;;10.40;9.52;;;;;;;13.83;58.65;94588.34;4934329;29;20506;-91
2021/10/13 10:49:46;;;;;;;9.73;8.82;;;;;;;14.11;59.11;94585.53;4931699;29;20027;-88
2021/10/13 10:52:19;;;;;;;8.82;8.05;;;;;;;14.63;56.56;94585.47;4933332;29;20536;-89
2021/10/13 10:54:52;;;;;;;9.75;8.45;;;;;;;14.62;56.63;94583.06;4931690;29;20042;-90
2021/10/13 10:57:46;;;;;;;9.20;7.97;;;;;;;14.79;56.66;94579.00;4932346;29;20035;-79
2021/10/13 11:00:35;;;;;;;8.35;7.65;;;;;;;14.51;55.66;94575.88;4932256;29;20457;-87
2021/10/13 11:03:16;;;;;;;9.18;8.38;;;;;;;13.73;57.75;94582.72;4929371;29;20512;-84
2021/10/13 11:05:41;;;;;;;8.20;7.40;;;;;;;13.95;57.92;94586.72;4940616;29;20063;-90
2021/10/13 11:08:09;;;;;;;9.25;8.38;;;;;;;13.88;57.14;94595.53;4932468;29;20063;-90
2021/10/13 11:10:35;;;;;;;8.40;7.70;;;;;;;13.65;56.19;94539.44;4938125;29;20478;-88
2021/10/13 11:13:00;;;;;;;8.93;7.03;;;;;;;13.81;56.08;94574.69;4946198;29;20035;-88
2021/10/13 11:15:28;;;;;;;7.30;6.63;;;;;;;14.32;57.59;94571.47;4929119;29;20392;-88
2021/10/13 11:17:53;;;;;;;6.63;6.10;;;;;;;14.48;55.21;94571.88;4932056;29;20027;-88
2021/10/13 11:20:20;;;;;;;7.20;6.60;;;;;;;14.00;54.87;94573.13;4928451;29;20078;-90
2021/10/13 11:22:56;;;;;;;6.72;5.80;;;;;;;14.18;55.27;94578.50;4931546;29;20482;-86
2021/10/13 11:25:22;;;;;;;9.27;6.47;;;;;;;14.37;54.95;94567.28;4928591;29;20032;-88
2021/10/13 11:28:00;;;;;;;6.38;5.75;;;;;;;14.39;54.58;94564.47;4906389;29;20126;-84
2021/10/13 11:30:28;;;;;;;7.45;6.75;;;;;;;14.39;54.72;94564.47;4938822;29;20095;-88
2021/10/13 11:32:53;;;;;;;10.95;7.93;;;;;;;13.96;54.74;94562.31;4937136;28;20441;-87
2021/10/13 11:35:19;;;;;;;12.27;9.57;;;;;;;13.70;53.68;94538.88;4940964;29;20023;-91
2021/10/13 11:37:52;;;;;;;6.65;6.05;;;;;;;13.81;54.78;94574.69;4940398;29;20039;-89
2021/10/13 11:40:20;;;;;;;5.72;4.68;;;;;;;13.85;54.25;94567.28;4935550;29;20046;-85
2021/10/13 11:42:45;;;;;;;6.20;5.13;;;;;;;13.78;55.76;94569.88;4941195;29;20078;-82
2021/10/13 11:45:18;;;;;;;7.53;6.03;;;;;;;13.38;55.91;94563.03;4939806;28;20019;-85
2021/10/13 11:47:44;;;;;;;9.15;7.47;;;;;;;13.33;57.72;94575.81;4961276;28;20110;-84
2021/10/13 11:50:14;;;;;;;7.00;6.40;;;;;;;13.14;58.75;94572.97;4933561;29;20386;-89
2021/10/13 11:52:43;;;;;;;;;;;;;;;13.21;60.19;94583.41;4940899;29;20047;-84
2021/10/13 11:55:10;;;;;;;7.03;6.43;;;;;;;13.08;58.25;94588.53;4938972;28;20551;-82
2021/10/13 11:57:36;;;;;;;7.32;6.63;;;;;;;13.04;57.55;94592.50;4937711;28;20035;-89
2021/10/13 12:00:16;;;;;;;7.15;6.45;;;;;;;13.10;57.91;94594.34;4933632;28;20039;-88
2021/10/13 12:02:54;;;;;;;9.55;7.13;;;;;;;13.30;59.21;94591.81;4936547;28;20491;-85
2021/10/13 12:05:20;;;;;;;7.50;6.80;;;;;;;13.22;60.30;94590.22;4940858;29;20130;-83
2021/10/13 12:07:45;;;;;;;7.55;6.85;;;;;;;13.40;58.93;94594.84;4936009;29;20446;-87
2021/10/13 12:10:11;;;;;;;10.60;7.32;;;;;;;13.06;60.58;94601.75;4942092;29;20383;-84
2021/10/13 12:12:37;;;;;;;7.72;7.00;;;;;;;12.96;60.30;94601.28;4935552;29;20039;-88
2021/10/13 12:15:16;;;;;;;8.18;7.47;;;;;;;12.85;63.09;94603.63;4942428;29;20027;-90
2021/10/13 12:17:42;;;;;;;9.63;8.30;;;;;;;12.90;64.01;94612.47;4938626;29;20031;-90
2021/10/13 12:20:18;;;;;;;8.77;8.00;;;;;;;12.80;63.68;94608.63;4940456;29;20580;-85
2021/10/13 12:22:49;;;;;;;9.00;8.25;;;;;;;12.73;61.86;94598.19;4932500;29;20065;-95
2021/10/13 12:27:59;;;;;;;10.13;9.13;;;;;;;12.22;63.40;94591.69;5022028;23;20095;-89
2021/10/13 12:30:32;;;;;;;11.23;8.75;;;;;;;12.41;64.17;94599.59;4925040;29;20040;-90
2021/10/13 12:33:05;;;;;;;11.25;9.50;;;;;;;12.57;64.22;94588.91;4919459;29;20032;-88
2021/10/13 12:35:30;;;;;;;9.90;8.90;;;;;;;12.59;63.60;94593.91;4941833;29;20027;-87
2021/10/13 12:37:56;;;;;;;10.73;9.32;;;;;;;12.49;63.18;94588.28;4922522;29;20429;-89
2021/10/13 12:40:21;;;;;;;9.93;9.05;;;;;;;12.61;64.17;94589.34;4940395;29;20035;-90
2021/10/13 12:42:47;;;;;;;10.60;9.60;;;;;;;12.54;64.45;94578.09;4937671;29;20019;-89
2021/10/13 12:45:12;;;;;;;9.95;9.10;;;;;;;12.50;62.65;94600.25;4911723;29;20044;-87
2021/10/13 12:47:38;;;;;;;11.07;9.23;;;;;;;12.48;63.05;94608.25;4932090;29;20042;-86
2021/10/13 12:50:11;;;;;;;10.85;9.85;;;;;;;12.27;62.76;94597.09;4921896;29;20371;-89
2021/10/13 12:52:37;;;;;;;10.38;9.32;;;;;;;12.40;63.27;94597.19;4919019;29;20035;-88
2021/10/13 12:55:02;;;;;;;20.95;10.85;;;;;;;12.63;63.27;94601.13;4920347;29;20032;-87
2021/10/13 12:57:29;;;;;;;12.20;9.43;;;;;;;12.43;63.22;94583.81;4919250;29;20044;-89
2021/10/13 12:59:54;;;;;;;11.48;9.60;;;;;;;12.35;62.87;94610.75;4922361;29;20039;-88
2021/10/13 13:02:20;;;;;;;11.40;10.00;;;;;;;12.32;65.28;94607.72;4922677;29;20036;-85
2021/10/13 13:04:45;;;;;;;13.88;12.07;;;;;;;12.25;66.12;94606.88;4916538;29;20043;-90
2021/10/13 13:07:12;;;;;;;13.25;11.88;;;;;;;12.08;65.90;94598.56;4921522;29;20024;-88
2021/10/13 13:09:38;;;;;;;12.77;11.45;;;;;;;12.01;66.92;94614.09;4919576;29;20039;-86
2021/10/13 13:12:04;;;;;;;15.73;12.00;;;;;;;11.87;67.10;94621.97;4907613;29;20067;-89
2021/10/13 13:14:30;;;;;;;12.55;11.15;;;;;;;11.92;66.71;94619.59;4907755;29;20059;-88
2021/10/13 13:16:55;;;;;;;13.40;12.10;;;;;;;11.59;67.32;94594.13;4904194;29;20046;-89
2021/10/13 13:19:21;;;;;;;13.02;10.60;;;;;;;11.71;66.83;94625.63;4888815;29;20024;-93
2021/10/13 13:21:46;;;;;;;13.48;11.68;;;;;;;11.79;67.75;94625.47;4889025;29;20501;-92
2021/10/13 13:24:12;;;;;;;13.43;11.38;;;;;;;11.71;66.82;94622.22;4918229;29;20053;-86
2021/10/13 13:26:38;;;;;;;12.13;10.88;;;;;;;11.72;66.40;94610.88;4909304;29;20079;-89
2021/10/13 13:29:05;;;;;;;13.88;11.98;;;;;;;11.77;66.73;94630.06;4908748;29;20064;-92
2021/10/13 13:31:30;;;;;;;15.05;13.35;;;;;;;11.81;67.21;94631.31;4919085;29;20463;-89
2021/10/13 13:33:56;;;;;;;18.50;12.80;;;;;;;11.95;66.87;94638.19;4917912;29;20529;-89
2021/10/13 13:36:21;;;;;;;14.30;11.77;;;;;;;11.79;66.01;94628.06;4917775;29;20035;-89
2021/10/13 13:38:50;;;;;;;13.75;12.55;;;;;;;11.73;66.50;94605.47;4915949;29;20028;-89
2021/10/13 13:41:16;;;;;;;12.20;10.80;;;;;;;11.90;65.86;94635.38;4904661;29;20090;-94
2021/10/13 13:43:44;;;;;;;14.38;11.57;;;;;;;11.99;64.40;94636.84;4918685;29;20040;-84
2021/10/13 13:46:14;;;;;;;13.55;11.63;;;;;;;11.78;63.58;94613.53;4891469;29;20502;-88
2021/10/13 13:48:43;;;;;;;15.90;12.13;;;;;;;12.03;64.81;94640.69;4883746;29;20126;-93
2021/10/13 13:51:09;;;;;;;15.25;12.48;;;;;;;11.88;63.91;94629.53;4917844;29;20047;-87
2021/10/13 13:53:35;;;;;;;11.68;10.48;;;;;;;11.91;64.07;94623.22;4892225;29;20027;-89
2021/10/13 13:56:00;;;;;;;10.98;9.88;;;;;;;12.01;63.84;94623.66;4903623;29;20042;-88
2021/10/13 13:58:25;;;;;;;10.93;9.77;;;;;;;12.13;64.32;94623.00;4902899;29;20066;-87
2021/10/13 14:00:51;;;;;;;10.90;9.75;;;;;;;12.10;65.20;94625.16;4920079;29;20047;-83
2021/10/13 14:03:16;;;;;;;11.85;10.65;;;;;;;11.93;65.49;94624.63;4918207;29;20028;-89
2021/10/13 14:05:42;;;;;;;11.32;9.93;;;;;;;11.79;64.93;94628.06;4894184;29;20518;-87
2021/10/13 14:08:08;;;;;;;11.25;9.75;;;;;;;11.68;65.69;94628.56;4912191;29;20123;-86
2021/10/13 14:10:34;;;;;;;11.30;10.20;;;;;;;11.62;66.78;94631.91;4920170;29;20421;-82
2021/10/13 14:13:01;;;;;;;15.50;10.85;;;;;;;11.63;67.31;94629.09;4931514;29;20110;-82
2021/10/13 14:15:26;;;;;;;11.77;10.57;;;;;;;11.56;67.09;94635.19;4947959;29;20055;-87
2021/10/13 14:17:52;;;;;;;10.88;9.90;;;;;;;11.40;67.35;94619.88;4947913;29;20800;-89
2021/10/13 14:20:17;;;;;;;11.55;10.45;;;;;;;11.30;67.01;94609.78;4932407;29;20512;-88
2021/10/13 14:22:43;;;;;;;15.18;12.13;;;;;;;11.47;68.69;94642.31;4915521;29;20126;-84
2021/10/13 14:25:08;;;;;;;15.73;12.05;;;;;;;11.46;69.20;94640.69;4947774;29;20044;-88
2021/10/13 14:27:34;;;;;;;13.00;11.63;;;;;;;11.33;70.26;94634.56;4931242;29;20056;-86
2021/10/13 14:29:59;;;;;;;13.10;12.00;;;;;;;11.32;69.60;94631.19;4913679;29;20037;-88
2021/10/13 14:32:25;;;;;;;12.75;11.60;;;;;;;11.18;70.58;94642.38;4931682;29;20032;-89
2021/10/13 14:34:52;;;;;;;15.23;13.13;;;;;;;11.32;71.07;94661.47;4930957;29;20035;-87
2021/10/13 14:37:18;;;;;;;16.45;13.45;;;;;;;11.15;71.67;94650.50;4946591;28;20032;-82
2021/10/13 14:39:47;;;;;;;16.88;15.18;;;;;;;11.11;72.17;94650.06;4930704;29;20042;-87
2021/10/13 14:42:15;;;;;;;18.92;14.57;;;;;;;11.07;73.11;94664.41;4933406;29;20490;-88
2021/10/13 14:44:41;;;;;;;14.88;13.40;;;;;;;10.91;72.31;94672.38;4923434;29;20048;-87
2021/10/13 14:47:07;;;;;;;15.77;14.20;;;;;;;10.77;73.82;94642.06;4893665;29;20056;-85
2021/10/13 14:49:32;;;;;;;14.05;12.55;;;;;;;10.87;73.50;94676.28;4895012;29;20032;-87
2021/10/13 14:51:58;;;;;;;14.00;12.65;;;;;;;10.76;73.62;94674.13;4903531;29;20043;-87
2021/10/13 14:54:23;;;;;;;12.85;11.65;;;;;;;10.58;73.98;94665.91;4907547;29;20052;-86
2021/10/13 14:56:49;;;;;;;16.98;11.57;;;;;;;10.29;72.75;94647.75;5110125;23;20018;-83
2021/10/13 14:59:14;;;;;;;12.20;10.90;;;;;;;10.29;72.41;94647.75;4932279;29;20131;-84
2021/10/13 15:01:40;;;;;;;12.38;11.18;;;;;;;10.25;73.50;94641.31;4931805;29;20067;-84
2021/10/13 15:04:06;;;;;;;13.88;12.55;;;;;;;10.15;75.03;94651.13;4933661;29;20039;-85
2021/10/13 15:06:33;;;;;;;15.30;11.48;;;;;;;9.84;76.12;94610.63;4939337;29;20031;-81
2021/10/13 15:08:59;;;;;;;13.43;12.18;;;;;;;9.58;76.68;94586.91;4952809;29;20020;-80
2021/10/13 15:11:25;;;;;;;16.17;14.05;;;;;;;10.27;77.94;94698.91;4943790;29;20189;-83
2021/10/13 15:13:50;;;;;;;15.95;14.00;;;;;;;10.26;79.39;94710.22;4939005;29;20466;-82
2021/10/13 15:16:16;;;;;;;16.52;14.15;;;;;;;10.06;80.56;94713.25;4937539;29;20023;-82
2021/10/13 15:18:41;;;;;;;21.20;15.95;;;;;;;9.08;80.56;94560.78;5099473;23;20066;-81
2021/10/13 15:21:06;;;;;;;18.48;16.52;;;;;;;9.62;80.51;94649.41;4940433;29;20067;-83
2021/10/13 15:23:32;;;;;;;18.48;16.50;;;;;;;9.73;81.98;94660.16;4933807;29;20553;-80
2021/10/13 15:25:57;;;;;;;21.10;16.40;;;;;;;9.89;82.29;94703.19;4929939;29;20024;-84
2021/10/13 15:28:23;;;;;;;20.00;15.57;;;;;;;9.85;83.78;94707.13;4922353;29;20024;-81
2021/10/13 15:33:23;;;;;;;23.20;17.00;;;;;;;9.53;81.76;94682.28;5475463;23;20059;-81
2021/10/13 15:35:49;;;;;;;24.83;16.98;;;;;;;9.04;82.24;94613.75;4958051;29;20085;-83
2021/10/13 15:38:14;;;;;;;23.05;18.77;;;;;;;9.09;84.28;94663.13;4968611;29;20047;-80
2021/10/13 15:40:40;;;;;;;19.60;17.48;;;;;;;9.03;84.82;94674.94;4988778;28;20027;-80
2021/10/13 15:43:06;;;;;;;23.40;19.95;;;;;;;8.45;84.29;94587.53;4971192;29;20047;-79
2021/10/13 15:45:32;;;;;;;19.45;17.45;;;;;;;8.88;86.13;94659.34;4972799;29;20477;-79
2021/10/13 15:47:58;;;;;;;20.45;18.13;;;;;;;8.45;87.16;94639.16;4963295;28;20580;-78
2021/10/13 15:50:23;;;;;;;22.20;17.27;;;;;;;8.54;88.51;94666.53;4960052;29;20019;-78
2021/10/13 15:52:49;;;;;;;26.15;19.35;;;;;;;8.44;89.20;94653.03;4928072;29;20020;-79
2021/10/13 15:55:14;;;;;;;26.02;19.90;;;;;;;8.66;90.28;94701.38;4944895;29;20544;-81
2021/10/13 15:57:40;;;;;;;28.10;22.15;;;;;;;8.45;89.81;94664.94;4949014;28;20046;-79
2021/10/13 16:02:40;;;;;;;32.05;25.20;;;;;;;8.28;90.88;94673.72;5167524;23;20036;-81
2021/10/13 16:05:06;;;;;;;30.38;25.63;;;;;;;8.09;91.04;94653.41;4967908;28;20028;-80
2021/10/13 16:07:32;;;;;;;27.65;23.63;;;;;;;8.07;90.27;94650.16;4951096;29;20015;-79
2021/10/13 16:09:58;;;;;;;32.53;24.73;;;;;;;7.90;89.16;94634.69;4950089;29;20014;-80
2021/10/13 16:12:30;;;;;;;24.70;20.85;;;;;;;8.10;89.58;94665.31;4949157;29;20032;-80
2021/10/13 16:14:57;;;;;;;24.55;21.08;;;;;;;7.76;89.82;94655.19;4958599;29;20020;-79
2021/10/13 16:17:23;;;;;;;23.35;20.02;;;;;;;7.94;91.25;94686.75;4949907;29;20043;-80
2021/10/13 16:19:48;;;;;;;21.05;18.88;;;;;;;7.61;90.18;94636.19;4963603;28;20111;-80
2021/10/13 16:24:49;;;;;;;33.13;25.45;;;;;;;7.60;91.37;94637.94;5328343;23;20070;-78
2021/10/13 16:27:16;;;;;;;66.80;43.63;;;;;;;8.15;90.56;94730.94;4938931;29;20046;-78
2021/10/13 16:29:41;;;;;;;86.65;60.13;;;;;;;8.13;91.03;94757.81;4938501;28;20035;-77
2021/10/13 16:32:09;;;;;;;55.78;40.38;;;;;;;8.10;92.16;94776.19;4953308;28;20495;-78
2021/10/13 16:34:37;;;;;;;28.92;24.85;;;;;;;7.94;93.00;94782.16;4957511;28;20114;-78
2021/10/13 16:37:03;;;;;;;27.48;22.17;;;;;;;7.89;93.41;94776.66;4947064;28;20038;-77
2021/10/13 16:39:29;;;;;;;20.63;18.48;;;;;;;7.88;94.81;94811.13;4966804;28;20455;-78
2021/10/13 16:41:54;;;;;;;18.10;16.27;;;;;;;7.92;93.44;94808.09;4975404;28;20035;-78
2021/10/13 16:44:20;;;;;;;25.48;20.13;;;;;;;7.92;92.94;94790.06;4957650;28;20035;-77
2021/10/13 16:46:46;;;;;;;21.98;18.25;;;;;;;7.96;91.46;94781.00;4943528;28;20069;-78